createdAt,value
2018-05-23T00:00:46.597Z,1002.67
2018-05-23T00:01:46.574Z,1002.70
2018-05-23T00:02:46.550Z,1002.66
2018-05-23T00:03:46.535Z,1002.74
2018-05-23T00:04:46.505Z,1002.73
2018-05-23T00:05:46.484Z,1002.72
2018-05-23T00:06:46.459Z,1002.72
2018-05-23T00:07:46.426Z,1002.73
2018-05-23T00:08:46.416Z,1002.73
2018-05-23T00:09:46.381Z,1002.70
2018-05-23T00:10:46.365Z,1002.72
2018-05-23T00:11:46.342Z,1002.73
2018-05-23T00:12:46.321Z,1002.79
2018-05-23T00:13:46.295Z,1002.79
2018-05-23T00:14:46.269Z,1002.82
2018-05-23T00:15:46.238Z,1002.81
2018-05-23T00:16:46.276Z,1002.85
2018-05-23T00:17:46.195Z,1002.81
2018-05-23T00:18:46.175Z,1002.79
2018-05-23T00:19:46.141Z,1002.76
2018-05-23T00:20:46.128Z,1002.77
2018-05-23T00:21:46.093Z,1002.72
2018-05-23T00:22:46.068Z,1002.75
2018-05-23T00:23:46.055Z,1002.76
2018-05-23T00:24:46.025Z,1002.78
2018-05-23T00:25:46.005Z,1002.80
2018-05-23T00:26:45.980Z,1002.78
2018-05-23T00:27:45.950Z,1002.80
2018-05-23T00:28:45.928Z,1002.78
2018-05-23T00:29:45.906Z,1002.79
2018-05-23T00:30:45.882Z,1002.79
2018-05-23T00:31:45.856Z,1002.79
2018-05-23T00:32:45.833Z,1002.82
2018-05-23T00:33:45.809Z,1002.83
2018-05-23T00:34:45.788Z,1002.86
2018-05-23T00:35:45.760Z,1002.82
2018-05-23T00:36:45.735Z,1002.82
2018-05-23T00:37:45.714Z,1002.81
2018-05-23T00:38:45.750Z,1002.80
2018-05-23T00:39:45.668Z,1002.78
2018-05-23T00:40:45.643Z,1002.76
2018-05-23T00:41:45.645Z,1002.78
2018-05-23T00:42:45.596Z,1002.75
2018-05-23T00:43:45.573Z,1002.72
2018-05-23T00:44:45.545Z,1002.73
2018-05-23T00:45:45.529Z,1002.77
2018-05-23T00:46:45.497Z,1002.74
2018-05-23T00:47:45.478Z,1002.77
2018-05-23T00:48:45.460Z,1002.77
2018-05-23T00:49:45.425Z,1002.76
2018-05-23T00:50:45.406Z,1002.74
2018-05-23T00:51:45.370Z,1002.77
2018-05-23T00:52:45.350Z,1002.73
2018-05-23T00:53:45.334Z,1002.73
2018-05-23T00:54:45.305Z,1002.78
2018-05-23T00:55:45.282Z,1002.74
2018-05-23T00:56:45.262Z,1002.75
2018-05-23T00:57:45.232Z,1002.73
2018-05-23T00:58:45.214Z,1002.75
2018-05-23T00:59:45.187Z,1002.76
2018-05-23T01:00:45.162Z,1002.78
2018-05-23T01:01:45.139Z,1002.78
2018-05-23T01:02:45.125Z,1002.77
2018-05-23T01:03:45.094Z,1002.76
2018-05-23T01:04:45.058Z,1002.73
2018-05-23T01:05:45.040Z,1002.76
2018-05-23T01:06:45.016Z,1002.75
2018-05-23T01:07:44.994Z,1002.72
2018-05-23T01:08:44.973Z,1002.76
2018-05-23T01:09:44.975Z,1002.76
2018-05-23T01:10:44.921Z,1002.75
2018-05-23T01:11:44.894Z,1002.72
2018-05-23T01:12:44.878Z,1002.70
2018-05-23T01:13:44.845Z,1002.70
2018-05-23T01:14:44.816Z,1002.66
2018-05-23T01:15:44.801Z,1002.66
2018-05-23T01:16:44.774Z,1002.64
2018-05-23T01:17:44.751Z,1002.63
2018-05-23T01:18:44.737Z,1002.65
2018-05-23T01:19:44.704Z,1002.65
2018-05-23T01:20:44.682Z,1002.66
2018-05-23T01:21:44.657Z,1002.69
2018-05-23T01:22:44.634Z,1002.68
2018-05-23T01:23:44.607Z,1002.68
2018-05-23T01:24:44.613Z,1002.71
2018-05-23T01:25:44.558Z,1002.74
2018-05-23T01:26:44.550Z,1002.70
2018-05-23T01:27:44.515Z,1002.72
2018-05-23T01:28:44.484Z,1002.73
2018-05-23T01:29:44.468Z,1002.74
2018-05-23T01:30:44.440Z,1002.75
2018-05-23T01:31:44.412Z,1002.75
2018-05-23T01:32:44.407Z,1002.79
2018-05-23T01:33:44.374Z,1002.77
2018-05-23T01:34:44.353Z,1002.72
2018-05-23T01:35:44.313Z,1002.77
2018-05-23T01:36:44.300Z,1002.76
2018-05-23T01:37:44.272Z,1002.82
2018-05-23T01:38:44.243Z,1002.79
2018-05-23T01:39:44.221Z,1002.81
2018-05-23T01:40:44.201Z,1002.82
2018-05-23T01:41:44.172Z,1002.85
2018-05-23T01:42:44.149Z,1002.82
2018-05-23T01:43:44.127Z,1002.83
2018-05-23T01:44:44.101Z,1002.85
2018-05-23T01:45:44.084Z,1002.85
2018-05-23T01:46:44.051Z,1002.83
2018-05-23T01:47:44.024Z,1002.84
2018-05-23T01:48:43.997Z,1002.81
2018-05-23T01:49:43.985Z,1002.84
2018-05-23T01:50:43.953Z,1002.84
2018-05-23T01:51:43.934Z,1002.85
2018-05-23T01:52:43.907Z,1002.86
2018-05-23T01:53:43.882Z,1002.87
2018-05-23T01:54:43.861Z,1002.87
2018-05-23T01:55:43.838Z,1002.88
2018-05-23T01:56:43.829Z,1002.87
2018-05-23T01:57:43.785Z,1002.88
2018-05-23T01:58:43.774Z,1002.85
2018-05-23T01:59:43.750Z,1002.91
2018-05-23T02:00:43.711Z,1002.91
2018-05-23T02:01:43.690Z,1002.91
2018-05-23T02:02:43.665Z,1002.89
2018-05-23T02:03:43.647Z,1002.92
2018-05-23T02:04:43.618Z,1002.90
2018-05-23T02:05:43.596Z,1002.90
2018-05-23T02:06:43.576Z,1002.90
2018-05-23T02:07:45.024Z,1002.87
2018-05-23T02:08:43.524Z,1002.85
2018-05-23T02:09:43.496Z,1002.90
2018-05-23T02:10:43.468Z,1002.90
2018-05-23T02:11:43.454Z,1002.89
2018-05-23T02:12:43.422Z,1002.89
2018-05-23T02:13:43.403Z,1002.88
2018-05-23T02:14:43.381Z,1002.85
2018-05-23T02:15:43.342Z,1002.90
2018-05-23T02:16:43.333Z,1002.89
2018-05-23T02:17:43.298Z,1002.89
2018-05-23T02:18:43.283Z,1002.88
2018-05-23T02:19:43.259Z,1002.90
2018-05-23T02:20:43.226Z,1002.95
2018-05-23T02:21:43.217Z,1002.92
2018-05-23T02:22:43.184Z,1002.92
2018-05-23T02:23:43.154Z,1002.92
2018-05-23T02:24:43.147Z,1002.93
2018-05-23T02:25:43.107Z,1002.91
2018-05-23T02:26:43.083Z,1002.93
2018-05-23T02:27:43.059Z,1002.95
2018-05-23T02:28:43.036Z,1002.92
2018-05-23T02:29:43.040Z,1002.92
2018-05-23T02:30:42.991Z,1002.94
2018-05-23T02:31:42.968Z,1002.94
2018-05-23T02:32:42.954Z,1002.93
2018-05-23T02:33:42.913Z,1002.93
2018-05-23T02:34:42.894Z,1002.91
2018-05-23T02:35:42.866Z,1002.91
2018-05-23T02:36:42.851Z,1002.91
2018-05-23T02:37:42.819Z,1002.90
2018-05-23T02:38:42.799Z,1002.93
2018-05-23T02:39:42.772Z,1002.87
2018-05-23T02:40:42.749Z,1002.87
2018-05-23T02:41:42.732Z,1002.86
2018-05-23T02:42:42.715Z,1002.93
2018-05-23T02:43:42.681Z,1002.91
2018-05-23T02:44:42.647Z,1002.89
2018-05-23T02:45:42.627Z,1002.89
2018-05-23T02:46:42.604Z,1002.89
2018-05-23T02:47:42.578Z,1002.87
2018-05-23T02:48:42.563Z,1002.92
2018-05-23T02:49:42.532Z,1002.93
2018-05-23T02:50:42.508Z,1002.92
2018-05-23T02:51:42.487Z,1002.92
2018-05-23T02:52:42.453Z,1002.95
2018-05-23T02:53:42.438Z,1002.97
2018-05-23T02:54:42.406Z,1002.98
2018-05-23T02:55:42.385Z,1002.95
2018-05-23T02:56:42.360Z,1002.97
2018-05-23T02:57:42.333Z,1003.00
2018-05-23T02:58:42.308Z,1002.97
2018-05-23T02:59:42.283Z,1002.99
2018-05-23T03:00:42.317Z,1003.01
2018-05-23T03:01:42.288Z,1003.03
2018-05-23T03:02:42.217Z,1003.02
2018-05-23T03:03:42.242Z,1003.00
2018-05-23T03:04:42.211Z,1002.99
2018-05-23T03:05:42.150Z,1002.98
2018-05-23T03:06:42.122Z,1003.00
2018-05-23T03:07:42.122Z,1002.99
2018-05-23T03:08:42.075Z,1003.00
2018-05-23T03:09:42.040Z,1003.03
2018-05-23T03:10:42.027Z,1003.04
2018-05-23T03:11:42.006Z,1003.03
2018-05-23T03:12:41.971Z,1003.02
2018-05-23T03:13:41.954Z,1003.02
2018-05-23T03:14:41.923Z,1002.99
2018-05-23T03:15:41.927Z,1003.05
2018-05-23T03:16:41.874Z,1003.06
2018-05-23T03:17:41.857Z,1003.05
2018-05-23T03:18:41.831Z,1003.00
2018-05-23T03:19:41.795Z,1003.05
2018-05-23T03:20:41.784Z,1003.01
2018-05-23T03:21:41.753Z,1003.03
2018-05-23T03:22:41.730Z,1003.08
2018-05-23T03:23:41.712Z,1003.10
2018-05-23T03:24:41.684Z,1003.13
2018-05-23T03:25:41.656Z,1003.11
2018-05-23T03:26:41.633Z,1003.09
2018-05-23T03:27:41.613Z,1003.10
2018-05-23T03:28:41.583Z,1003.07
2018-05-23T03:29:41.567Z,1003.11
2018-05-23T03:30:41.534Z,1003.11
2018-05-23T03:31:41.516Z,1003.12
2018-05-23T03:32:41.487Z,1003.09
2018-05-23T03:33:41.468Z,1003.11
2018-05-23T03:34:41.441Z,1003.11
2018-05-23T03:35:41.416Z,1003.14
2018-05-23T03:36:41.392Z,1003.10
2018-05-23T03:37:41.367Z,1003.14
2018-05-23T03:38:41.352Z,1003.14
2018-05-23T03:39:41.325Z,1003.16
2018-05-23T03:40:41.291Z,1003.17
2018-05-23T03:41:41.276Z,1003.16
2018-05-23T03:42:41.246Z,1003.19
2018-05-23T03:43:41.224Z,1003.18
2018-05-23T03:44:41.197Z,1003.20
2018-05-23T03:45:41.171Z,1003.18
2018-05-23T03:46:41.150Z,1003.18
2018-05-23T03:47:41.128Z,1003.15
2018-05-23T03:48:41.103Z,1003.17
2018-05-23T03:49:41.079Z,1003.16
2018-05-23T03:50:41.057Z,1003.16
2018-05-23T03:51:41.027Z,1003.16
2018-05-23T03:52:41.019Z,1003.18
2018-05-23T03:53:40.980Z,1003.20
2018-05-23T03:54:41.009Z,1003.18
2018-05-23T03:55:40.925Z,1003.18
2018-05-23T03:56:40.908Z,1003.15
2018-05-23T03:57:40.883Z,1003.19
2018-05-23T03:58:40.862Z,1003.18
2018-05-23T03:59:40.835Z,1003.18
2018-05-23T04:00:40.805Z,1003.22
2018-05-23T04:01:40.792Z,1003.23
2018-05-23T04:02:40.767Z,1003.21
2018-05-23T04:03:40.737Z,1003.23
2018-05-23T04:04:40.799Z,1003.22
2018-05-23T04:05:40.691Z,1003.23
2018-05-23T04:06:40.671Z,1003.27
2018-05-23T04:07:40.641Z,1003.27
2018-05-23T04:08:40.614Z,1003.28
2018-05-23T04:09:40.668Z,1003.28
2018-05-23T04:10:40.565Z,1003.30
2018-05-23T04:11:40.544Z,1003.35
2018-05-23T04:12:40.515Z,1003.35
2018-05-23T04:13:40.502Z,1003.39
2018-05-23T04:14:40.478Z,1003.42
2018-05-23T04:15:40.444Z,1003.42
2018-05-23T04:16:40.422Z,1003.41
2018-05-23T04:17:40.399Z,1003.45
2018-05-23T04:18:40.380Z,1003.44
2018-05-23T04:19:40.346Z,1003.45
2018-05-23T04:20:40.324Z,1003.46
2018-05-23T04:21:40.304Z,1003.46
2018-05-23T04:22:40.275Z,1003.50
2018-05-23T04:23:40.270Z,1003.52
2018-05-23T04:24:40.230Z,1003.55
2018-05-23T04:25:40.202Z,1003.55
2018-05-23T04:26:40.185Z,1003.52
2018-05-23T04:27:40.156Z,1003.53
2018-05-23T04:28:40.131Z,1003.54
2018-05-23T04:29:40.111Z,1003.55
2018-05-23T04:30:40.081Z,1003.54
2018-05-23T04:31:40.079Z,1003.57
2018-05-23T04:32:40.030Z,1003.58
2018-05-23T04:33:40.011Z,1003.57
2018-05-23T04:34:39.987Z,1003.56
2018-05-23T04:35:39.962Z,1003.57
2018-05-23T04:36:39.937Z,1003.59
2018-05-23T04:37:39.918Z,1003.60
2018-05-23T04:38:39.892Z,1003.58
2018-05-23T04:39:39.866Z,1003.62
2018-05-23T04:40:39.849Z,1003.68
2018-05-23T04:41:39.813Z,1003.65
2018-05-23T04:42:39.793Z,1003.67
2018-05-23T04:43:39.766Z,1003.71
2018-05-23T04:44:39.747Z,1003.71
2018-05-23T04:45:39.720Z,1003.76
2018-05-23T04:46:39.702Z,1003.76
2018-05-23T04:47:39.674Z,1003.79
2018-05-23T04:48:39.723Z,1003.80
2018-05-23T04:49:39.623Z,1003.81
2018-05-23T04:50:39.596Z,1003.80
2018-05-23T04:51:39.578Z,1003.81
2018-05-23T04:52:39.551Z,1003.80
2018-05-23T04:53:39.530Z,1003.82
2018-05-23T04:54:39.503Z,1003.83
2018-05-23T04:55:39.476Z,1003.88
2018-05-23T04:56:39.464Z,1003.87
2018-05-23T04:57:39.428Z,1003.87
2018-05-23T04:58:39.410Z,1003.86
2018-05-23T04:59:39.382Z,1003.90
2018-05-23T05:00:39.358Z,1003.89
2018-05-23T05:01:39.331Z,1003.91
2018-05-23T05:02:39.316Z,1003.95
2018-05-23T05:03:39.303Z,1003.91
2018-05-23T05:04:39.258Z,1003.92
2018-05-23T05:05:39.243Z,1003.96
2018-05-23T05:06:39.214Z,1003.98
2018-05-23T05:07:39.185Z,1004.01
2018-05-23T05:08:39.167Z,1004.02
2018-05-23T05:09:39.147Z,1004.05
2018-05-23T05:10:39.115Z,1004.03
2018-05-23T05:11:39.095Z,1004.08
2018-05-23T05:12:39.065Z,1004.10
2018-05-23T05:13:39.109Z,1004.11
2018-05-23T05:14:39.021Z,1004.12
2018-05-23T05:15:38.993Z,1004.13
2018-05-23T05:16:38.968Z,1004.15
2018-05-23T05:17:38.947Z,1004.16
2018-05-23T05:18:38.924Z,1004.19
2018-05-23T05:19:38.896Z,1004.18
2018-05-23T05:20:38.878Z,1004.21
2018-05-23T05:21:38.847Z,1004.20
2018-05-23T05:22:38.832Z,1004.26
2018-05-23T05:23:38.797Z,1004.25
2018-05-23T05:24:38.778Z,1004.25
2018-05-23T05:25:38.755Z,1004.30
2018-05-23T05:26:38.726Z,1004.30
2018-05-23T05:27:38.706Z,1004.33
2018-05-23T05:28:38.684Z,1004.36
2018-05-23T05:29:38.655Z,1004.37
2018-05-23T05:30:38.638Z,1004.39
2018-05-23T05:31:38.626Z,1004.41
2018-05-23T05:32:38.586Z,1004.38
2018-05-23T05:33:38.556Z,1004.39
2018-05-23T05:34:38.538Z,1004.39
2018-05-23T05:35:38.586Z,1004.35
2018-05-23T05:36:38.490Z,1004.38
2018-05-23T05:37:38.463Z,1004.43
2018-05-23T05:38:38.441Z,1004.41
2018-05-23T05:39:38.412Z,1004.47
2018-05-23T05:40:38.389Z,1004.44
2018-05-23T05:41:38.373Z,1004.48
2018-05-23T05:42:38.346Z,1004.48
2018-05-23T05:43:38.318Z,1004.54
2018-05-23T05:44:38.302Z,1004.52
2018-05-23T05:45:38.265Z,1004.55
2018-05-23T05:46:38.242Z,1004.56
2018-05-23T05:47:38.222Z,1004.54
2018-05-23T05:48:38.207Z,1004.56
2018-05-23T05:49:38.171Z,1004.58
2018-05-23T05:50:38.173Z,1004.62
2018-05-23T05:51:38.122Z,1004.62
2018-05-23T05:52:38.114Z,1004.61
2018-05-23T05:53:38.083Z,1004.64
2018-05-23T05:54:38.199Z,1004.67
2018-05-23T05:55:38.029Z,1004.68
2018-05-23T05:56:38.001Z,1004.70
2018-05-23T05:57:37.983Z,1004.74
2018-05-23T05:58:37.965Z,1004.76
2018-05-23T05:59:37.928Z,1004.78
2018-05-23T06:00:37.908Z,1004.81
2018-05-23T06:01:37.881Z,1004.83
2018-05-23T06:02:37.857Z,1004.85
2018-05-23T06:03:37.842Z,1004.89
2018-05-23T06:04:37.813Z,1004.89
2018-05-23T06:05:37.780Z,1004.93
2018-05-23T06:06:37.755Z,1004.94
2018-05-23T06:07:37.740Z,1004.93
2018-05-23T06:08:37.711Z,1004.95
2018-05-23T06:09:37.706Z,1004.98
2018-05-23T06:10:37.660Z,1004.98
2018-05-23T06:11:37.646Z,1004.99
2018-05-23T06:12:37.613Z,1004.98
2018-05-23T06:13:37.601Z,1005.00
2018-05-23T06:14:37.598Z,1004.98
2018-05-23T06:15:37.551Z,1005.03
2018-05-23T06:16:37.524Z,1004.98
2018-05-23T06:17:37.492Z,1004.99
2018-05-23T06:18:37.469Z,1005.02
2018-05-23T06:19:37.446Z,1005.02
2018-05-23T06:20:37.422Z,1004.96
2018-05-23T06:21:37.396Z,1005.00
2018-05-23T06:22:37.380Z,1005.00
2018-05-23T06:23:37.349Z,1004.98
2018-05-23T06:24:37.337Z,1005.01
2018-05-23T06:25:37.297Z,1005.03
2018-05-23T06:26:37.290Z,1005.07
2018-05-23T06:27:37.246Z,1005.03
2018-05-23T06:28:37.239Z,1005.05
2018-05-23T06:29:37.202Z,1005.05
2018-05-23T06:30:37.181Z,1005.04
2018-05-23T06:31:37.162Z,1005.11
2018-05-23T06:32:37.127Z,1005.11
2018-05-23T06:33:37.115Z,1005.16
2018-05-23T06:34:37.090Z,1005.18
2018-05-23T06:35:37.063Z,1005.25
2018-05-23T06:36:37.035Z,1005.26
2018-05-23T06:37:37.014Z,1005.26
2018-05-23T06:38:36.988Z,1005.28
2018-05-23T06:39:36.967Z,1005.27
2018-05-23T06:40:36.936Z,1005.26
2018-05-23T06:41:36.915Z,1005.29
2018-05-23T06:42:36.941Z,1005.27
2018-05-23T06:43:36.969Z,1005.24
2018-05-23T06:44:36.854Z,1005.21
2018-05-23T06:45:36.819Z,1005.19
2018-05-23T06:46:36.803Z,1005.19
2018-05-23T06:47:36.773Z,1005.20
2018-05-23T06:48:36.750Z,1005.20
2018-05-23T06:49:36.727Z,1005.21
2018-05-23T06:50:36.697Z,1005.19
2018-05-23T06:51:36.684Z,1005.20
2018-05-23T06:52:36.652Z,1005.20
2018-05-23T06:53:36.634Z,1005.19
2018-05-23T06:54:36.612Z,1005.18
2018-05-23T06:55:36.640Z,1005.19
2018-05-23T06:56:36.561Z,1005.17
2018-05-23T06:57:36.533Z,1005.20
2018-05-23T06:58:36.514Z,1005.22
2018-05-23T06:59:36.487Z,1005.21
2018-05-23T07:00:36.475Z,1005.18
2018-05-23T07:01:36.442Z,1005.23
2018-05-23T07:02:36.417Z,1005.21
2018-05-23T07:03:36.390Z,1005.21
2018-05-23T07:04:36.367Z,1005.19
2018-05-23T07:05:36.341Z,1005.25
2018-05-23T07:06:36.320Z,1005.26
2018-05-23T07:07:36.299Z,1005.28
2018-05-23T07:08:36.270Z,1005.28
2018-05-23T07:09:36.249Z,1005.30
2018-05-23T07:10:36.303Z,1005.31
2018-05-23T07:11:36.199Z,1005.28
2018-05-23T07:12:36.177Z,1005.27
2018-05-23T07:13:36.151Z,1005.26
2018-05-23T07:14:36.126Z,1005.21
2018-05-23T07:15:36.110Z,1005.22
2018-05-23T07:16:36.076Z,1005.24
2018-05-23T07:17:36.089Z,1005.29
2018-05-23T07:18:36.046Z,1005.28
2018-05-23T07:19:36.005Z,1005.33
2018-05-23T07:20:35.990Z,1005.32
2018-05-23T07:21:35.959Z,1005.36
2018-05-23T07:22:35.941Z,1005.38
2018-05-23T07:23:35.913Z,1005.40
2018-05-23T07:24:35.894Z,1005.38
2018-05-23T07:25:35.874Z,1005.44
2018-05-23T07:26:35.847Z,1005.35
2018-05-23T07:27:35.890Z,1005.41
2018-05-23T07:28:35.797Z,1005.37
2018-05-23T07:29:35.778Z,1005.40
2018-05-23T07:30:35.756Z,1005.37
2018-05-23T07:31:35.724Z,1005.37
2018-05-23T07:32:35.707Z,1005.40
2018-05-23T07:33:35.676Z,1005.36
2018-05-23T07:34:35.672Z,1005.35
2018-05-23T07:35:35.639Z,1005.36
2018-05-23T07:36:35.605Z,1005.32
2018-05-23T07:37:35.593Z,1005.35
2018-05-23T07:38:35.563Z,1005.31
2018-05-23T07:39:35.540Z,1005.36
2018-05-23T07:40:35.520Z,1005.36
2018-05-23T07:41:35.494Z,1005.38
2018-05-23T07:42:35.468Z,1005.42
2018-05-23T07:43:35.452Z,1005.39
2018-05-23T07:44:35.422Z,1005.40
2018-05-23T07:45:35.404Z,1005.39
2018-05-23T07:46:35.375Z,1005.43
2018-05-23T07:47:35.359Z,1005.39
2018-05-23T07:48:35.335Z,1005.40
2018-05-23T07:49:35.307Z,1005.42
2018-05-23T07:50:35.291Z,1005.39
2018-05-23T07:51:35.258Z,1005.39
2018-05-23T07:52:35.242Z,1005.44
2018-05-23T07:53:35.220Z,1005.42
2018-05-23T07:54:35.207Z,1005.37
2018-05-23T07:55:35.170Z,1005.40
2018-05-23T07:56:35.150Z,1005.40
2018-05-23T07:57:35.127Z,1005.41
2018-05-23T07:58:35.102Z,1005.46
2018-05-23T07:59:35.084Z,1005.43
2018-05-23T08:00:35.073Z,1005.43
2018-05-23T08:01:35.033Z,1005.48
2018-05-23T08:02:35.025Z,1005.50
2018-05-23T08:03:34.985Z,1005.48
2018-05-23T08:04:34.965Z,1005.49
2018-05-23T08:05:34.944Z,1005.44
2018-05-23T08:06:34.921Z,1005.49
2018-05-23T08:07:34.901Z,1005.50
2018-05-23T08:08:34.880Z,1005.50
2018-05-23T08:09:34.859Z,1005.54
2018-05-23T08:10:34.830Z,1005.55
2018-05-23T08:11:34.806Z,1005.54
2018-05-23T08:12:34.784Z,1005.53
2018-05-23T08:13:34.766Z,1005.52
2018-05-23T08:14:34.736Z,1005.53
2018-05-23T08:15:34.718Z,1005.53
2018-05-23T08:16:34.699Z,1005.57
2018-05-23T08:17:34.668Z,1005.58
2018-05-23T08:18:34.652Z,1005.61
2018-05-23T08:19:34.623Z,1005.60
2018-05-23T08:20:34.606Z,1005.64
2018-05-23T08:21:34.576Z,1005.62
2018-05-23T08:22:34.555Z,1005.63
2018-05-23T08:23:34.534Z,1005.62
2018-05-23T08:24:34.518Z,1005.64
2018-05-23T08:25:34.493Z,1005.62
2018-05-23T08:26:34.469Z,1005.62
2018-05-23T08:27:34.447Z,1005.64
2018-05-23T08:28:34.456Z,1005.65
2018-05-23T08:29:34.401Z,1005.68
2018-05-23T08:30:34.379Z,1005.68
2018-05-23T08:31:34.353Z,1005.66
2018-05-23T08:32:34.342Z,1005.67
2018-05-23T08:33:34.310Z,1005.70
2018-05-23T08:34:34.287Z,1005.66
2018-05-23T08:35:34.269Z,1005.68
2018-05-23T08:36:34.239Z,1005.65
2018-05-23T08:37:34.220Z,1005.63
2018-05-23T08:38:34.193Z,1005.60
2018-05-23T08:39:34.185Z,1005.62
2018-05-23T08:40:34.153Z,1005.65
2018-05-23T08:41:34.137Z,1005.66
2018-05-23T08:42:34.109Z,1005.65
2018-05-23T08:43:34.091Z,1005.65
2018-05-23T08:44:34.070Z,1005.65
2018-05-23T08:45:34.040Z,1005.66
2018-05-23T08:46:34.022Z,1005.67
2018-05-23T08:47:34.003Z,1005.71
2018-05-23T08:48:33.995Z,1005.70
2018-05-23T08:49:33.953Z,1005.72
2018-05-23T08:50:33.937Z,1005.72
2018-05-23T08:51:33.907Z,1005.72
2018-05-23T08:52:33.886Z,1005.74
2018-05-23T08:53:33.873Z,1005.72
2018-05-23T08:54:33.851Z,1005.76
2018-05-23T08:55:33.820Z,1005.75
2018-05-23T08:56:33.799Z,1005.77
2018-05-23T08:57:33.780Z,1005.79
2018-05-23T08:58:33.759Z,1005.77
2018-05-23T08:59:33.732Z,1005.77
2018-05-23T09:00:33.708Z,1005.81
2018-05-23T09:01:33.695Z,1005.80
2018-05-23T09:02:33.670Z,1005.82
2018-05-23T09:03:33.642Z,1005.86
2018-05-23T09:04:33.628Z,1005.86
2018-05-23T09:05:33.601Z,1005.86
2018-05-23T09:06:33.585Z,1005.86
2018-05-23T09:07:33.555Z,1005.87
2018-05-23T09:08:33.534Z,1005.88
2018-05-23T09:09:33.629Z,1005.86
2018-05-23T09:10:33.487Z,1005.87
2018-05-23T09:11:33.474Z,1005.89
2018-05-23T09:12:33.534Z,1005.89
2018-05-23T09:13:33.426Z,1005.90
2018-05-23T09:14:33.405Z,1005.89
2018-05-23T09:15:33.376Z,1005.93
2018-05-23T09:16:33.368Z,1005.93
2018-05-23T09:17:33.334Z,1006.00
2018-05-23T09:18:33.310Z,1005.96
2018-05-23T09:19:33.297Z,1006.03
2018-05-23T09:20:33.266Z,1006.01
2018-05-23T09:21:33.257Z,1006.04
2018-05-23T09:22:33.229Z,1006.05
2018-05-23T09:23:33.204Z,1006.05
2018-05-23T09:24:33.185Z,1006.08
2018-05-23T09:25:33.189Z,1006.10
2018-05-23T09:26:33.138Z,1006.10
2018-05-23T09:27:33.123Z,1006.11
2018-05-23T09:28:33.099Z,1006.13
2018-05-23T09:29:33.074Z,1006.17
2018-05-23T09:30:33.051Z,1006.22
2018-05-23T09:31:33.035Z,1006.20
2018-05-23T09:32:33.005Z,1006.21
2018-05-23T09:33:32.991Z,1006.22
2018-05-23T09:34:32.964Z,1006.18
2018-05-23T09:35:32.945Z,1006.20
2018-05-23T09:36:32.934Z,1006.24
2018-05-23T09:37:32.903Z,1006.28
2018-05-23T09:38:32.893Z,1006.25
2018-05-23T09:39:32.859Z,1006.29
2018-05-23T09:40:32.833Z,1006.29
2018-05-23T09:41:32.816Z,1006.30
2018-05-23T09:42:32.788Z,1006.33
2018-05-23T09:43:32.776Z,1006.32
2018-05-23T09:44:32.746Z,1006.39
2018-05-23T09:45:32.734Z,1006.36
2018-05-23T09:46:32.712Z,1006.36
2018-05-23T09:47:32.683Z,1006.37
2018-05-23T09:48:32.661Z,1006.35
2018-05-23T09:49:32.644Z,1006.37
2018-05-23T09:50:32.622Z,1006.39
2018-05-23T09:51:32.596Z,1006.36
2018-05-23T09:52:32.573Z,1006.39
2018-05-23T09:53:32.560Z,1006.38
2018-05-23T09:54:32.536Z,1006.37
2018-05-23T09:55:32.511Z,1006.41
2018-05-23T09:56:32.485Z,1006.43
2018-05-23T09:57:32.501Z,1006.41
2018-05-23T09:58:32.468Z,1006.42
2018-05-23T09:59:32.422Z,1006.39
2018-05-23T10:00:32.405Z,1006.39
2018-05-23T10:01:32.409Z,1006.41
2018-05-23T10:02:32.362Z,1006.39
2018-05-23T10:03:32.369Z,1006.37
2018-05-23T10:04:32.380Z,1006.39
2018-05-23T10:05:32.303Z,1006.41
2018-05-23T10:06:32.301Z,1006.42
2018-05-23T10:07:32.256Z,1006.40
2018-05-23T10:08:32.234Z,1006.42
2018-05-23T10:09:32.207Z,1006.46
2018-05-23T10:10:32.198Z,1006.44
2018-05-23T10:11:32.165Z,1006.47
2018-05-23T10:12:32.149Z,1006.47
2018-05-23T10:13:32.144Z,1006.53
2018-05-23T10:14:32.108Z,1006.50
2018-05-23T10:15:32.083Z,1006.52
2018-05-23T10:16:32.058Z,1006.52
2018-05-23T10:17:32.045Z,1006.55
2018-05-23T10:18:32.026Z,1006.59
2018-05-23T10:19:31.999Z,1006.60
2018-05-23T10:20:31.976Z,1006.63
2018-05-23T10:21:31.956Z,1006.59
2018-05-23T10:22:31.937Z,1006.65
2018-05-23T10:23:31.917Z,1006.62
2018-05-23T10:24:31.891Z,1006.64
2018-05-23T10:25:31.876Z,1006.65
2018-05-23T10:26:31.843Z,1006.65
2018-05-23T10:27:31.829Z,1006.67
2018-05-23T10:28:31.798Z,1006.68
2018-05-23T10:29:31.790Z,1006.64
2018-05-23T10:30:31.774Z,1006.74
2018-05-23T10:31:31.741Z,1006.72
2018-05-23T10:32:31.717Z,1006.71
2018-05-23T10:33:31.696Z,1006.73
2018-05-23T10:34:31.676Z,1006.71
2018-05-23T10:35:31.657Z,1006.69
2018-05-23T10:36:31.628Z,1006.75
2018-05-23T10:37:31.610Z,1006.79
2018-05-23T10:38:31.588Z,1006.77
2018-05-23T10:39:31.573Z,1006.77
2018-05-23T10:40:31.560Z,1006.82
2018-05-23T10:41:31.525Z,1006.81
2018-05-23T10:42:31.506Z,1006.81
2018-05-23T10:43:31.477Z,1006.81
2018-05-23T10:44:31.457Z,1006.78
2018-05-23T10:45:31.445Z,1006.78
2018-05-23T10:46:31.421Z,1006.81
2018-05-23T10:47:31.396Z,1006.84
2018-05-23T10:48:31.372Z,1006.83
2018-05-23T10:49:31.360Z,1006.90
2018-05-23T10:50:31.332Z,1006.87
2018-05-23T10:51:31.312Z,1006.89
2018-05-23T10:52:31.297Z,1006.96
2018-05-23T10:53:31.270Z,1006.97
2018-05-23T10:54:31.242Z,1006.98
2018-05-23T10:55:31.228Z,1006.97
2018-05-23T10:56:31.206Z,1006.98
2018-05-23T10:57:31.181Z,1007.01
2018-05-23T10:58:31.163Z,1007.01
2018-05-23T10:59:31.137Z,1007.03
2018-05-23T11:00:31.117Z,1007.02
2018-05-23T11:01:31.102Z,1007.05
2018-05-23T11:02:31.081Z,1007.02
2018-05-23T11:03:31.049Z,1007.04
2018-05-23T11:04:31.033Z,1007.05
2018-05-23T11:05:31.019Z,1007.10
2018-05-23T11:06:30.991Z,1007.08
2018-05-23T11:07:30.966Z,1007.07
2018-05-23T11:08:30.944Z,1007.08
2018-05-23T11:09:30.925Z,1007.09
2018-05-23T11:10:30.909Z,1007.10
2018-05-23T11:11:30.890Z,1007.09
2018-05-23T11:12:30.859Z,1007.12
2018-05-23T11:13:30.842Z,1007.13
2018-05-23T11:14:30.880Z,1007.11
2018-05-23T11:15:30.800Z,1007.12
2018-05-23T11:16:30.788Z,1007.17
2018-05-23T11:17:30.756Z,1007.13
2018-05-23T11:18:30.739Z,1007.17
2018-05-23T11:19:30.714Z,1007.18
2018-05-23T11:20:30.705Z,1007.15
2018-05-23T11:21:30.673Z,1007.19
2018-05-23T11:22:30.650Z,1007.23
2018-05-23T11:23:30.627Z,1007.22
2018-05-23T11:24:30.603Z,1007.24
2018-05-23T11:25:30.584Z,1007.23
2018-05-23T11:26:30.690Z,1007.18
2018-05-23T11:27:30.558Z,1007.21
2018-05-23T11:28:30.514Z,1007.18
2018-05-23T11:29:30.518Z,1007.16
2018-05-23T11:30:30.481Z,1007.18
2018-05-23T11:31:30.464Z,1007.14
2018-05-23T11:32:30.437Z,1007.13
2018-05-23T11:33:30.417Z,1007.13
2018-05-23T11:34:30.442Z,1007.17
2018-05-23T11:35:30.368Z,1007.16
2018-05-23T11:36:30.346Z,1007.16
2018-05-23T11:37:30.328Z,1007.16
2018-05-23T11:38:30.303Z,1007.19
2018-05-23T11:39:30.279Z,1007.18
2018-05-23T11:40:30.254Z,1007.18
2018-05-23T11:41:30.242Z,1007.17
2018-05-23T11:42:30.221Z,1007.12
2018-05-23T11:43:30.203Z,1007.11
2018-05-23T11:44:30.171Z,1007.11
2018-05-23T11:45:30.153Z,1007.10
2018-05-23T11:46:30.193Z,1007.09
2018-05-23T11:47:30.104Z,1007.10
2018-05-23T11:48:30.088Z,1007.15
2018-05-23T11:49:30.067Z,1007.15
2018-05-23T11:50:30.045Z,1007.15
2018-05-23T11:51:30.019Z,1007.13
2018-05-23T11:52:30.028Z,1007.12
2018-05-23T11:53:29.984Z,1007.08
2018-05-23T11:54:30.062Z,1007.13
2018-05-23T11:55:29.932Z,1007.12
2018-05-23T11:56:29.912Z,1007.10
2018-05-23T11:57:29.888Z,1007.08
2018-05-23T11:58:29.874Z,1007.09
2018-05-23T11:59:29.861Z,1007.09
2018-05-23T12:00:29.833Z,1007.10
2018-05-23T12:01:29.813Z,1007.08
2018-05-23T12:02:29.787Z,1007.07
2018-05-23T12:03:29.760Z,1007.06
2018-05-23T12:04:29.736Z,1007.09
2018-05-23T12:05:29.726Z,1007.10